Time;durP1;ratioP1;P1;durP2;ratioP2;P2;SDS_P1;SDS_P2;PMS_P1;PMS_P2;Temp;Humidity;BMP_temperature;BMP_pressure;BME280_temperature;BME280_humidity;BME280_pressure;Samples;Min_cycle;Max_cycle;Signal;HPM_P1;HPM_P2
2021/10/24 00:01:54;;;;;;;8.50;4.58;;;;;;;5.23;67.38;99970.27;1691168;85;21128;-64
2021/10/24 00:04:20;;;;;;;15.00;5.83;;;;;;;5.24;67.25;99965.09;1690841;85;20948;-64
2021/10/24 00:06:47;;;;;;;12.28;4.17;;;;;;;5.24;67.25;99965.09;1690994;85;21020;-64
2021/10/24 00:09:14;;;;;;;10.75;4.95;;;;;;;5.26;67.32;99968.36;1690950;85;20916;-63
2021/10/24 00:11:42;;;;;;;15.03;4.37;;;;;;;5.26;67.29;99968.36;1690979;83;20968;-64
2021/10/24 00:14:09;;;;;;;9.25;4.20;;;;;;;5.28;67.28;99975.72;1691032;83;21787;-64
2021/10/24 00:16:35;;;;;;;9.40;4.15;;;;;;;5.28;67.28;99975.72;1690916;85;20949;-64
2021/10/24 00:19:03;;;;;;;8.55;3.72;;;;;;;5.28;67.40;99975.72;1691229;85;20941;-64
2021/10/24 00:21:32;;;;;;;12.58;4.62;;;;;;;5.28;67.81;99970.81;1690875;85;21483;-64
2021/10/24 00:23:58;;;;;;;10.00;4.30;;;;;;;5.28;67.81;99970.81;1690983;85;20960;-64
2021/10/24 00:26:25;;;;;;;11.12;4.03;;;;;;;5.29;67.87;99967.83;1690788;84;21521;-65
2021/10/24 00:28:52;;;;;;;10.30;4.70;;;;;;;5.30;68.08;99969.46;1690693;85;21398;-65
2021/10/24 00:31:18;;;;;;;11.43;4.17;;;;;;;5.30;68.08;99969.46;1690710;83;20938;-65
2021/10/24 00:33:45;;;;;;;10.58;4.08;;;;;;;5.31;68.46;99967.55;1690608;85;20894;-65
2021/10/24 00:36:12;;;;;;;17.20;4.35;;;;;;;5.33;68.49;99965.92;1690753;83;21388;-65
2021/10/24 00:38:39;;;;;;;16.82;5.45;;;;;;;5.34;68.66;99971.64;1690614;85;21107;-65
2021/10/24 00:41:06;;;;;;;14.03;5.17;;;;;;;5.36;68.74;99963.48;1691017;85;20898;-65
2021/10/24 00:43:33;;;;;;;14.60;5.12;;;;;;;5.36;68.97;99968.92;1667006;86;21451;-65
2021/10/24 00:45:59;;;;;;;9.75;4.00;;;;;;;5.36;69.06;99970.28;1705811;83;21037;-65
2021/10/24 00:48:26;;;;;;;13.00;4.55;;;;;;;5.35;69.66;99975.45;1671381;84;21467;-64
2021/10/24 00:50:52;;;;;;;10.03;4.00;;;;;;;5.35;69.66;99975.45;1705663;82;21208;-65
2021/10/24 00:53:19;;;;;;;8.03;3.10;;;;;;;5.39;69.53;99973.01;1671278;86;21015;-66
2021/10/24 00:55:47;;;;;;;15.63;4.83;;;;;;;5.37;69.94;99967.02;1705566;84;20972;-67
2021/10/24 00:58:16;;;;;;;11.43;4.35;;;;;;;5.38;69.94;99983.08;1671338;85;20920;-67
2021/10/24 01:00:42;;;;;;;17.23;3.98;;;;;;;5.40;70.05;99984.17;1705899;84;21497;-66
2021/10/24 01:03:09;;;;;;;9.43;3.70;;;;;;;5.41;70.36;99982.54;1671453;85;21121;-66
2021/10/24 01:05:36;;;;;;;10.82;4.55;;;;;;;5.41;70.36;99982.54;1705549;84;21406;-66
2021/10/24 01:08:05;;;;;;;9.10;4.03;;;;;;;5.44;70.33;99982.55;1644710;86;20928;-66
2021/10/24 01:10:32;;;;;;;13.80;4.75;;;;;;;5.45;70.51;99983.63;1705617;84;21450;-66
2021/10/24 01:12:59;;;;;;;11.43;4.40;;;;;;;5.46;70.62;99983.09;1705740;84;20949;-66
2021/10/24 01:15:25;;;;;;;13.88;4.62;;;;;;;5.46;70.63;99990.72;1671396;84;21114;-65
2021/10/24 01:17:53;;;;;;;8.73;3.95;;;;;;;5.48;70.82;99994.53;1705843;84;20954;-65
2021/10/24 01:20:23;;;;;;;12.13;4.40;;;;;;;5.47;71.23;99998.34;1671308;85;21012;-66
2021/10/24 01:22:51;;;;;;;10.13;3.80;;;;;;;5.46;71.20;99999.42;1705534;84;20945;-66
2021/10/24 01:25:18;;;;;;;9.60;4.15;;;;;;;5.45;71.29;100002.69;1671352;86;20949;-65
2021/10/24 01:27:48;;;;;;;8.78;3.83;;;;;;;5.46;71.63;100006.23;1707425;82;21270;-66
2021/10/24 01:30:14;;;;;;;13.83;4.53;;;;;;;5.46;71.52;100002.15;1708321;84;20950;-65
2021/10/24 01:32:43;;;;;;;13.15;4.37;;;;;;;5.45;71.59;100006.78;1708370;84;20933;-65
2021/10/24 01:35:10;;;;;;;13.05;5.30;;;;;;;5.46;71.70;100004.88;1708707;84;21005;-65
2021/10/24 01:37:39;;;;;;;14.35;4.80;;;;;;;5.46;71.89;100014.41;1708596;84;20981;-65
2021/10/24 01:40:12;;;;;;;10.03;4.25;;;;;;;5.46;71.96;100014.41;1708351;82;21108;-65
2021/10/24 01:42:48;;;;;;;11.73;4.20;;;;;;;5.46;72.14;100013.86;1708753;84;21508;-65
2021/10/24 01:45:17;;;;;;;10.63;4.03;;;;;;;5.45;72.00;100011.41;1708353;84;20925;-66
2021/10/24 01:47:44;;;;;;;11.70;5.00;;;;;;;5.43;72.07;100012.22;1708321;84;20866;-66
2021/10/24 01:50:11;;;;;;;10.13;4.33;;;;;;;5.43;72.21;100014.95;1708408;84;20901;-65
2021/10/24 01:52:44;;;;;;;19.90;4.55;;;;;;;5.41;72.18;100021.20;1708299;84;21212;-67
2021/10/24 01:55:12;;;;;;;9.13;3.92;;;;;;;5.41;72.27;100028.02;1708402;84;21413;-66
2021/10/24 01:57:42;;;;;;;13.40;4.53;;;;;;;5.40;72.35;100031.28;1708661;84;21441;-66
2021/10/24 02:00:10;;;;;;;15.25;5.30;;;;;;;5.39;72.46;100031.55;1708269;84;21002;-67
2021/10/24 02:02:52;;;;;;;16.85;5.15;;;;;;;5.37;72.36;100033.72;1685233;84;20902;-67
2021/10/24 02:05:26;;;;;;;17.07;4.50;;;;;;;5.37;72.50;100043.25;1653197;84;21169;-66
2021/10/24 02:07:56;;;;;;;11.68;4.80;;;;;;;5.34;72.60;100044.61;1708351;84;20937;-67
2021/10/24 02:10:23;;;;;;;14.00;4.50;;;;;;;5.30;73.11;100040.23;1708357;84;21437;-66
2021/10/24 02:12:51;;;;;;;11.85;4.87;;;;;;;5.30;73.11;100040.23;1708350;84;20957;-68
2021/10/24 02:15:21;;;;;;;9.68;4.47;;;;;;;5.26;72.85;100047.30;1708322;82;20937;-66
2021/10/24 02:17:49;;;;;;;12.47;4.92;;;;;;;5.24;73.01;100042.67;1708301;82;21179;-66
2021/10/24 02:20:19;;;;;;;16.40;5.10;;;;;;;5.21;73.05;100037.77;1708269;84;20985;-66
2021/10/24 02:22:45;;;;;;;14.63;5.22;;;;;;;5.21;73.10;100048.66;1708255;84;20953;-66
2021/10/24 02:25:14;;;;;;;12.75;4.90;;;;;;;5.20;73.18;100049.74;1708329;84;20937;-66
2021/10/24 02:27:41;;;;;;;12.88;5.37;;;;;;;5.20;73.21;100049.74;1703253;83;21008;-66
2021/10/24 02:30:10;;;;;;;16.12;4.92;;;;;;;5.19;73.43;100052.77;1671279;86;21077;-66
2021/10/24 02:32:39;;;;;;;11.75;4.58;;;;;;;5.18;73.43;100064.19;1705459;82;21431;-66
2021/10/24 02:35:09;;;;;;;15.08;4.95;;;;;;;5.17;73.43;100063.91;1705461;84;20980;-65
2021/10/24 02:37:45;;;;;;;18.77;5.28;;;;;;;5.16;73.52;100069.08;1671302;86;20953;-65
2021/10/24 02:40:16;;;;;;;10.58;3.75;;;;;;;5.16;73.52;100069.08;1705684;82;21477;-65
2021/10/24 02:42:45;;;;;;;12.43;5.03;;;;;;;5.16;73.81;100069.62;1705606;82;21166;-65
2021/10/24 02:45:14;;;;;;;11.20;4.87;;;;;;;5.16;73.91;100077.25;1705394;84;21413;-65
2021/10/24 02:47:41;;;;;;;16.65;5.17;;;;;;;5.16;73.91;100077.25;1705556;84;21041;-67
2021/10/24 02:50:10;;;;;;;15.23;4.47;;;;;;;5.16;73.95;100078.61;1705688;84;21001;-66
2021/10/24 02:52:38;;;;;;;19.17;5.85;;;;;;;5.14;74.14;100083.50;1671332;85;21012;-65
2021/10/24 02:55:05;;;;;;;11.57;4.80;;;;;;;5.15;74.06;100079.70;1691255;83;22318;-66
2021/10/24 02:57:32;;;;;;;15.80;5.10;;;;;;;5.15;74.07;100074.25;1705420;84;20874;-66
2021/10/24 02:59:59;;;;;;;9.50;4.37;;;;;;;5.16;74.11;100085.41;1671181;84;21004;-67
2021/10/24 03:02:26;;;;;;;15.58;5.15;;;;;;;5.15;74.31;100087.86;1705345;84;20938;-67
2021/10/24 03:04:53;;;;;;;10.08;5.00;;;;;;;5.14;74.40;100088.94;1671414;85;21460;-67
2021/10/24 03:07:21;;;;;;;17.37;5.50;;;;;;;5.12;74.43;100087.03;1705516;84;21154;-66
2021/10/24 03:09:47;;;;;;;13.35;5.75;;;;;;;5.12;74.47;100085.67;1670283;85;21067;-67
2021/10/24 03:12:15;;;;;;;14.50;5.30;;;;;;;5.12;74.66;100084.31;1689283;85;21434;-66
2021/10/24 03:14:44;;;;;;;14.35;5.25;;;;;;;5.12;74.66;100079.41;1703851;82;20998;-67
2021/10/24 03:17:13;;;;;;;12.60;5.20;;;;;;;5.11;74.72;100085.39;1644203;86;20995;-67
2021/10/24 03:19:41;;;;;;;12.03;5.00;;;;;;;5.12;74.82;100084.85;1690790;83;21171;-68
2021/10/24 03:22:08;;;;;;;15.78;5.10;;;;;;;5.12;74.82;100084.85;1671279;86;20959;-67
2021/10/24 03:24:36;;;;;;;13.62;5.15;;;;;;;5.11;74.98;100075.05;1705751;84;20866;-67
2021/10/24 03:27:04;;;;;;;11.53;4.55;;;;;;;5.12;75.36;100080.23;1671120;85;21516;-67
2021/10/24 03:29:32;;;;;;;9.90;4.37;;;;;;;5.13;75.38;100086.48;1705401;84;20961;-67
2021/10/24 03:31:59;;;;;;;12.18;5.00;;;;;;;5.10;75.14;100087.84;1671337;85;21219;-67
2021/10/24 03:34:25;;;;;;;15.45;5.20;;;;;;;5.10;75.14;100087.84;1705481;83;20858;-67
2021/10/24 03:36:52;;;;;;;15.75;5.87;;;;;;;5.06;75.22;100080.47;1705505;84;20858;-67
2021/10/24 03:39:19;;;;;;;13.55;5.15;;;;;;;5.10;75.55;100089.74;1705628;84;20956;-67
2021/10/24 03:41:45;;;;;;;13.48;5.30;;;;;;;5.10;75.55;100089.74;1677529;84;20862;-68
2021/10/24 03:44:14;;;;;;;10.95;4.42;;;;;;;5.08;75.19;100091.91;1705450;84;21128;-73
2021/10/24 03:46:41;;;;;;;16.07;5.97;;;;;;;5.07;75.54;100088.37;1671346;86;21523;-67
2021/10/24 03:49:08;;;;;;;11.40;4.55;;;;;;;5.07;75.89;100095.17;1705495;84;21021;-67
2021/10/24 03:51:34;;;;;;;16.75;5.92;;;;;;;5.04;75.71;100084.82;1671306;86;20968;-67
2021/10/24 03:54:01;;;;;;;17.00;5.53;;;;;;;5.09;75.69;100094.91;1705831;84;20902;-67
2021/10/24 03:56:28;;;;;;;24.70;5.75;;;;;;;5.08;75.93;100093.27;1670997;84;21531;-66
2021/10/24 03:58:55;;;;;;;16.62;4.80;;;;;;;5.08;75.93;100093.27;1705729;83;21009;-67
2021/10/24 04:01:22;;;;;;;16.77;6.03;;;;;;;5.08;76.09;100094.63;1671236;85;20881;-67
2021/10/24 04:03:49;;;;;;;17.75;5.08;;;;;;;5.05;76.07;100087.82;1690687;83;20985;-68
2021/10/24 04:06:16;;;;;;;16.23;5.92;;;;;;;5.05;76.05;100082.38;1671245;86;20913;-67
2021/10/24 04:08:43;;;;;;;15.40;5.70;;;;;;;5.05;76.05;100082.38;1705666;83;21111;-67
2021/10/24 04:11:10;;;;;;;12.95;5.75;;;;;;;5.06;76.55;100094.90;1670452;86;21524;-69
2021/10/24 04:13:37;;;;;;;14.43;5.78;;;;;;;5.06;76.55;100094.90;1705188;82;20925;-69
2021/10/24 04:16:05;;;;;;;20.60;6.28;;;;;;;5.05;76.57;100094.63;1705405;84;20941;-69
2021/10/24 04:18:50;;;;;;;15.65;6.40;;;;;;;5.04;76.64;100101.69;1705689;84;20922;-67
2021/10/24 04:21:17;;;;;;;18.42;6.22;;;;;;;5.08;76.61;100112.32;1671317;86;21147;-68
2021/10/24 04:23:43;;;;;;;13.75;5.58;;;;;;;5.07;76.63;100110.14;1690079;85;20899;-68
2021/10/24 04:26:10;;;;;;;18.32;6.22;;;;;;;5.09;76.66;100109.34;1670562;84;20964;-67
2021/10/24 04:28:37;;;;;;;15.32;6.20;;;;;;;5.12;76.61;100113.42;1707271;83;20929;-67
2021/10/24 04:31:04;;;;;;;14.35;5.92;;;;;;;5.11;76.63;100109.89;1708277;84;20932;-68
2021/10/24 04:33:31;;;;;;;16.95;5.62;;;;;;;5.10;76.73;100106.89;1708386;83;21185;-68
2021/10/24 04:35:58;;;;;;;16.10;6.15;;;;;;;5.12;76.82;100114.79;1708283;82;21923;-68
2021/10/24 04:38:24;;;;;;;14.13;5.22;;;;;;;5.10;76.76;100115.05;1681895;84;21001;-68
2021/10/24 04:40:53;;;;;;;17.98;5.28;;;;;;;5.11;76.85;100122.14;1708227;84;21433;-67
2021/10/24 04:43:20;;;;;;;20.30;6.10;;;;;;;5.11;76.92;100117.23;1707572;84;21026;-67
2021/10/24 04:45:47;;;;;;;17.75;6.08;;;;;;;5.11;76.92;100117.23;1708005;82;21218;-69
2021/10/24 04:48:13;;;;;;;10.30;5.25;;;;;;;5.11;77.19;100120.77;1708144;84;20897;-68
2021/10/24 04:50:42;;;;;;;14.33;5.60;;;;;;;5.13;77.22;100124.59;1708469;84;20941;-68
2021/10/24 04:53:10;;;;;;;14.13;5.85;;;;;;;5.14;77.24;100125.69;1708213;84;22143;-67
2021/10/24 04:55:38;;;;;;;16.17;5.10;;;;;;;5.16;77.53;100123.52;1708291;84;20996;-68
2021/10/24 04:58:05;;;;;;;20.05;5.67;;;;;;;5.16;77.53;100123.52;1708276;84;21148;-69
2021/10/24 05:00:33;;;;;;;17.67;5.37;;;;;;;5.22;77.51;100134.67;1708227;84;21457;-67
2021/10/24 05:03:00;;;;;;;14.33;5.12;;;;;;;5.22;77.51;100134.67;1708196;84;20901;-68
2021/10/24 05:05:28;;;;;;;15.13;5.60;;;;;;;5.23;77.41;100134.95;1708264;84;20976;-68
2021/10/24 05:07:55;;;;;;;12.70;5.83;;;;;;;5.24;77.45;100146.11;1682008;84;21422;-69
2021/10/24 05:10:22;;;;;;;16.60;5.45;;;;;;;5.24;77.45;100146.11;1708254;82;21154;-69
2021/10/24 05:12:49;;;;;;;13.32;5.53;;;;;;;5.25;77.63;100147.75;1707786;84;21005;-68
2021/10/24 05:15:16;;;;;;;12.95;5.12;;;;;;;5.26;77.70;100149.39;1707301;82;20886;-68
2021/10/24 05:17:44;;;;;;;14.70;5.87;;;;;;;5.27;77.72;100153.75;1706692;84;20941;-69
2021/10/24 05:20:11;;;;;;;15.55;5.35;;;;;;;5.32;77.70;100161.12;1680852;84;20942;-68
2021/10/24 05:22:38;;;;;;;12.10;5.50;;;;;;;5.37;77.48;100173.94;1706430;82;21735;-71
2021/10/24 05:25:07;;;;;;;16.42;5.78;;;;;;;5.37;77.48;100173.94;1705970;84;20854;-79
2021/10/24 05:27:36;;;;;;;12.55;5.47;;;;;;;5.39;77.57;100173.95;1706473;83;20921;-75
2021/10/24 05:30:04;;;;;;;14.75;5.95;;;;;;;5.39;77.57;100173.95;1704013;83;20910;-72
2021/10/24 05:32:32;;;;;;;12.78;5.50;;;;;;;5.41;77.52;100175.04;1704134;84;21017;-74
2021/10/24 05:34:59;;;;;;;14.00;5.67;;;;;;;5.43;77.45;100181.04;1704046;84;21167;-73
2021/10/24 05:37:28;;;;;;;23.50;6.60;;;;;;;5.43;77.35;100187.30;1669672;86;20969;-76
2021/10/24 05:39:56;;;;;;;18.40;5.62;;;;;;;5.45;77.34;100187.86;1703937;84;20902;-70
2021/10/24 05:42:40;;;;;;;15.95;6.65;;;;;;;5.47;77.30;100188.41;1702553;84;21525;-72
2021/10/24 05:45:08;;;;;;;14.03;5.55;;;;;;;5.50;77.18;100197.95;1703972;84;21025;-70
2021/10/24 05:47:38;;;;;;;11.38;4.92;;;;;;;5.51;77.10;100194.97;1643574;86;21008;-71
2021/10/24 05:50:08;;;;;;;15.35;5.67;;;;;;;5.52;77.01;100201.23;1703451;84;20855;-67
2021/10/24 05:52:36;;;;;;;19.30;5.67;;;;;;;5.55;76.88;100206.14;1703996;83;20890;-66
2021/10/24 05:55:06;;;;;;;13.13;5.42;;;;;;;5.55;76.88;100206.14;1704002;82;20947;-68
2021/10/24 05:57:33;;;;;;;13.20;5.05;;;;;;;5.57;76.66;100221.13;1704096;84;20930;-67
2021/10/24 06:00:07;;;;;;;11.68;4.45;;;;;;;5.57;76.50;100216.23;1699845;83;21822;-68
2021/10/24 06:02:35;;;;;;;15.43;5.05;;;;;;;5.60;76.13;100218.42;1668077;84;20944;-71
2021/10/24 06:05:22;;;;;;;13.18;5.53;;;;;;;5.65;76.18;100227.98;1704012;84;20980;-70
2021/10/24 06:07:49;;;;;;;13.53;5.08;;;;;;;5.74;75.54;100235.91;1667534;85;21011;-71
2021/10/24 06:10:18;;;;;;;14.55;4.50;;;;;;;5.74;75.54;100235.91;1703278;84;21088;-71
2021/10/24 06:12:51;;;;;;;24.45;4.47;;;;;;;5.80;75.81;100236.17;1703114;84;21111;-68
2021/10/24 06:15:19;;;;;;;10.10;3.90;;;;;;;5.86;75.26;100239.19;1703353;84;21051;-68
2021/10/24 06:17:48;;;;;;;13.03;3.90;;;;;;;5.92;74.60;100239.52;1703440;84;21092;-71
2021/10/24 06:20:17;;;;;;;13.08;4.20;;;;;;;5.96;73.85;100240.62;1703288;84;21016;-71
2021/10/24 06:22:45;;;;;;;8.83;3.15;;;;;;;6.00;73.55;100252.34;1702994;84;21061;-67
2021/10/24 06:25:14;;;;;;;8.35;3.52;;;;;;;6.00;73.01;100254.53;1704337;84;21473;-67
2021/10/24 06:27:42;;;;;;;12.80;3.83;;;;;;;6.02;72.77;100255.62;1705729;84;20949;-69
2021/10/24 06:30:13;;;;;;;9.20;3.87;;;;;;;6.04;72.45;100258.36;1671196;85;20997;-68
2021/10/24 06:32:44;;;;;;;8.10;3.62;;;;;;;6.11;72.63;100262.19;1667845;84;21001;-67
2021/10/24 06:35:31;;;;;;;10.55;3.42;;;;;;;6.18;71.90;100252.67;1705618;84;21496;-67
2021/10/24 06:38:02;;;;;;;12.15;3.98;;;;;;;6.24;71.97;100258.95;1667705;86;21222;-67
2021/10/24 06:40:30;;;;;;;13.32;3.67;;;;;;;6.32;71.88;100267.15;1704297;83;20946;-67
2021/10/24 06:42:57;;;;;;;5.97;2.83;;;;;;;6.41;71.45;100265.50;1705212;84;21016;-68
2021/10/24 06:45:45;;;;;;;8.15;3.42;;;;;;;6.51;70.85;100262.78;1705596;84;20905;-67
2021/10/24 06:48:31;;;;;;;5.42;2.90;;;;;;;6.57;70.48;100266.61;1705626;84;20937;-67
2021/10/24 06:51:06;;;;;;;8.55;3.05;;;;;;;6.65;70.57;100267.98;1670718;86;21165;-67
2021/10/24 06:53:35;;;;;;;9.55;3.95;;;;;;;6.73;70.10;100276.17;1700595;84;20929;-68
2021/10/24 06:56:11;;;;;;;8.98;2.98;;;;;;;6.73;69.71;100281.63;1671269;86;20909;-67
2021/10/24 06:58:43;;;;;;;6.90;2.77;;;;;;;6.75;69.51;100287.09;1701010;84;20902;-67
2021/10/24 07:01:15;;;;;;;;;;;;;;;6.73;69.50;100287.91;1673681;86;20901;-67
2021/10/24 07:04:01;;;;;;;10.65;3.35;;;;;;;6.72;69.85;100289.54;1654700;86;21174;-69
2021/10/24 07:06:33;;;;;;;8.18;2.58;;;;;;;6.73;69.88;100291.18;1705431;84;21543;-66
2021/10/24 07:09:08;;;;;;;7.58;2.75;;;;;;;6.73;69.42;100288.45;1702066;84;20885;-69
2021/10/24 07:11:41;;;;;;;11.30;3.12;;;;;;;6.72;69.76;100288.18;1671290;84;21520;-68
2021/10/24 07:14:12;;;;;;;8.55;3.02;;;;;;;6.71;69.52;100292.00;1677537;84;20953;-68
2021/10/24 07:16:44;;;;;;;8.90;3.08;;;;;;;6.71;69.01;100261.44;1704351;82;21159;-66
2021/10/24 07:19:17;;;;;;;7.15;2.62;;;;;;;6.68;68.78;100302.09;1707136;82;20867;-69
2021/10/24 07:21:50;;;;;;;4.92;2.37;;;;;;;6.59;68.92;100310.81;1677464;84;21601;-67
2021/10/24 07:24:23;;;;;;;6.50;2.52;;;;;;;6.51;68.98;100305.89;1701371;84;20934;-67
2021/10/24 07:26:52;;;;;;;6.97;3.20;;;;;;;6.43;69.24;100308.32;1705234;84;21001;-67
2021/10/24 07:29:30;;;;;;;17.67;3.45;;;;;;;6.40;69.73;100306.95;1647235;85;20909;-66
2021/10/24 07:31:58;;;;;;;9.70;2.98;;;;;;;6.42;70.03;100314.33;1700386;84;20970;-68
2021/10/24 07:34:56;;;;;;;7.58;2.95;;;;;;;6.42;70.06;100314.33;1700601;83;20935;-66
2021/10/24 07:37:27;;;;;;;8.05;3.02;;;;;;;6.41;70.05;100329.59;1699581;83;20988;-65
2021/10/24 07:39:55;;;;;;;6.08;3.20;;;;;;;6.34;70.40;100341.33;1673909;85;20968;-65
2021/10/24 07:42:24;;;;;;;9.10;2.22;;;;;;;6.22;70.52;100337.47;1700012;83;21854;-66
2021/10/24 07:44:56;;;;;;;3.62;2.02;;;;;;;6.05;70.53;100336.86;1700554;84;21015;-66
2021/10/24 07:47:38;;;;;;;2.27;1.45;;;;;;;5.92;71.05;100343.08;1695128;84;20950;-67
2021/10/24 07:50:10;;;;;;;6.08;2.33;;;;;;;5.88;71.39;100340.57;1670571;84;21547;-66
2021/10/24 07:52:43;;;;;;;9.40;3.00;;;;;;;5.93;71.88;100333.81;1677103;84;21476;-65
2021/10/24 07:55:28;;;;;;;9.95;4.25;;;;;;;6.00;71.57;100338.20;1671593;85;22072;-65
2021/10/24 07:57:59;;;;;;;14.45;2.65;;;;;;;6.06;71.54;100338.50;1672800;84;21005;-66
2021/10/24 08:00:31;;;;;;;6.27;2.47;;;;;;;6.16;71.15;100340.72;1695613;84;21078;-65
2021/10/24 08:03:04;;;;;;;6.35;2.77;;;;;;;6.26;70.14;100338.03;1700664;83;21823;-66
2021/10/24 08:05:34;;;;;;;5.97;2.87;;;;;;;6.35;69.76;100332.88;1700426;84;21028;-65
2021/10/24 08:08:06;;;;;;;17.10;7.33;;;;;;;6.43;69.30;100333.69;1700743;84;20917;-64
2021/10/24 08:10:40;;;;;;;21.45;8.30;;;;;;;6.51;69.06;100338.62;1700575;84;27196;-67
2021/10/24 08:13:19;;;;;;;18.85;7.50;;;;;;;6.56;68.73;100338.63;1700312;84;21007;-66
2021/10/24 08:15:48;;;;;;;15.43;6.65;;;;;;;6.59;68.36;100345.45;1650346;85;20893;-65
2021/10/24 08:18:19;;;;;;;10.43;5.20;;;;;;;6.61;68.52;100338.64;1649896;84;20999;-66
2021/10/24 08:21:04;;;;;;;13.05;5.92;;;;;;;6.72;68.15;100347.66;1700341;83;21161;-67
2021/10/24 08:23:36;;;;;;;13.93;6.00;;;;;;;6.85;67.73;100344.95;1678513;84;21555;-66
2021/10/24 08:26:05;;;;;;;8.58;4.05;;;;;;;6.95;67.81;100351.75;1699701;83;20945;-65
2021/10/24 08:28:35;;;;;;;11.85;4.15;;;;;;;7.04;67.26;100347.39;1673360;83;20975;-66
2021/10/24 08:31:05;;;;;;;9.33;4.65;;;;;;;7.07;67.10;100347.39;1673619;85;20950;-66
2021/10/24 08:33:39;;;;;;;15.48;4.17;;;;;;;7.13;66.79;100354.49;1672745;85;21199;-66
2021/10/24 08:36:14;;;;;;;10.95;3.47;;;;;;;7.35;66.49;100350.94;1673447;85;21536;-67
2021/10/24 08:38:42;;;;;;;7.25;2.95;;;;;;;7.84;67.01;100355.19;1690044;83;21572;-64
2021/10/24 08:41:12;;;;;;;6.95;2.70;;;;;;;8.41;63.27;100360.72;1690607;85;20984;-65
2021/10/24 08:43:45;;;;;;;7.08;2.92;;;;;;;8.78;62.18;100358.01;1690462;85;21580;-65
2021/10/24 08:46:13;;;;;;;4.58;1.98;;;;;;;8.99;61.13;100358.69;1690739;84;21417;-65
2021/10/24 08:48:58;;;;;;;8.65;2.90;;;;;;;9.10;59.37;100365.17;1645304;85;21428;-67
2021/10/24 08:51:32;;;;;;;7.65;2.85;;;;;;;8.98;58.07;100370.75;1690589;85;21533;-65
2021/10/24 08:54:07;;;;;;;7.53;2.47;;;;;;;8.67;58.77;100371.48;1690139;83;21556;-67
2021/10/24 08:56:37;;;;;;;5.53;2.55;;;;;;;8.49;59.74;100366.97;1689898;85;21031;-66
2021/10/24 08:59:04;;;;;;;;;;;;;;;8.70;60.45;100365.45;1692560;85;21154;-69
2021/10/24 09:01:35;;;;;;;4.58;2.20;;;;;;;9.22;59.13;100365.63;1689467;84;20134;-69
2021/10/24 09:04:11;;;;;;;6.50;2.37;;;;;;;9.40;57.25;100366.00;1680088;84;20957;-68
2021/10/24 09:07:01;;;;;;;9.20;2.60;;;;;;;9.19;57.76;100359.90;1668098;85;20973;-70
2021/10/24 09:09:35;;;;;;;7.83;2.45;;;;;;;8.91;57.33;100362.85;1690448;84;20997;-67
2021/10/24 09:12:10;;;;;;;4.90;2.20;;;;;;;8.70;55.44;100367.64;1690936;85;21788;-66
2021/10/24 09:14:55;;;;;;;15.20;4.37;;;;;;;8.64;55.82;100366.06;1690544;83;21495;-66
2021/10/24 09:17:33;;;;;;;11.68;3.77;;;;;;;8.62;56.01;100369.63;1676126;83;20946;-69
2021/10/24 09:20:05;;;;;;;9.20;3.00;;;;;;;8.57;56.55;100366.92;1689454;85;20992;-72
2021/10/24 09:22:44;;;;;;;6.80;2.90;;;;;;;8.59;54.22;100371.56;1664361;85;21043;-69
2021/10/24 09:25:16;;;;;;;6.35;2.02;;;;;;;8.57;54.32;100369.66;1689653;85;21193;-68
2021/10/24 09:28:03;;;;;;;6.08;2.47;;;;;;;8.72;53.19;100370.09;1664580;83;20964;-66
2021/10/24 09:30:36;;;;;;;10.45;2.25;;;;;;;8.81;52.83;100376.61;1664492;85;21022;-65
2021/10/24 09:33:11;;;;;;;6.35;2.22;;;;;;;8.83;52.90;100375.77;1689347;84;21002;-67
2021/10/24 09:35:47;;;;;;;5.47;2.27;;;;;;;8.82;52.68;100379.06;1688977;83;21037;-68
2021/10/24 09:38:32;;;;;;;6.33;3.05;;;;;;;8.92;53.07;100380.36;1664029;85;21174;-65
2021/10/24 09:41:13;;;;;;;8.93;3.35;;;;;;;8.96;53.57;100389.37;1689138;85;43640;-65
2021/10/24 09:43:46;;;;;;;8.15;2.33;;;;;;;8.95;54.13;100387.19;1689632;83;20966;-66
2021/10/24 09:46:21;;;;;;;7.17;2.87;;;;;;;8.85;54.44;100385.34;1690514;85;20942;-65
2021/10/24 09:48:56;;;;;;;12.25;3.20;;;;;;;8.71;54.97;100399.38;1690722;85;21013;-67
2021/10/24 09:51:38;;;;;;;9.30;3.35;;;;;;;8.49;55.10;100397.61;1691130;85;21159;-64
2021/10/24 09:54:17;;;;;;;6.33;3.37;;;;;;;8.43;55.79;100402.30;1665283;85;20863;-65
2021/10/24 09:56:44;;;;;;;8.43;2.33;;;;;;;8.56;56.30;100400.86;1689995;83;20899;-68
2021/10/24 09:59:16;;;;;;;5.60;2.67;;;;;;;8.73;55.30;100397.19;1689220;85;20966;-65
2021/10/24 10:01:53;;;;;;;7.42;2.80;;;;;;;8.80;54.84;100400.98;1689365;85;20978;-64
2021/10/24 10:04:25;;;;;;;8.13;3.47;;;;;;;8.72;54.49;100400.20;1668494;83;21563;-64
2021/10/24 10:06:53;;;;;;;10.93;2.90;;;;;;;8.62;54.14;100402.48;1698902;83;20992;-65
2021/10/24 10:09:20;;;;;;;6.67;2.50;;;;;;;8.46;53.91;100408.57;1698561;83;21513;-65
2021/10/24 10:11:59;;;;;;;10.35;3.67;;;;;;;8.30;53.89;100404.23;1700250;83;21210;-65
2021/10/24 10:14:33;;;;;;;9.38;2.77;;;;;;;8.17;54.08;100416.58;1699700;83;20993;-65
2021/10/24 10:17:08;;;;;;;10.82;2.17;;;;;;;8.09;54.36;100412.23;1697569;83;20890;-64
2021/10/24 10:19:49;;;;;;;18.15;2.98;;;;;;;8.00;53.94;100416.66;1688414;83;21501;-64
2021/10/24 10:22:34;;;;;;;5.70;2.33;;;;;;;7.89;54.38;100411.77;1674586;83;21567;-65
2021/10/24 10:25:12;;;;;;;6.10;1.92;;;;;;;7.84;54.65;100415.33;1700893;83;21529;-65
2021/10/24 10:27:46;;;;;;;6.33;2.33;;;;;;;7.83;54.91;100417.79;1700406;83;21029;-65
2021/10/24 10:30:19;;;;;;;5.72;2.72;;;;;;;7.84;54.47;100423.53;1686172;83;21883;-64
2021/10/24 10:32:52;;;;;;;7.95;2.30;;;;;;;7.79;54.14;100414.52;1685805;83;21044;-65
2021/10/24 10:35:24;;;;;;;;;;;;;;;7.76;54.11;100414.52;1672502;84;21560;-64
2021/10/24 10:37:58;;;;;;;8.13;2.98;;;;;;;7.77;55.06;100414.80;1683209;84;20168;-65
2021/10/24 10:40:40;;;;;;;8.23;2.47;;;;;;;7.83;54.83;100415.05;1686620;83;21087;-64
2021/10/24 10:43:18;;;;;;;6.78;1.70;;;;;;;7.92;54.06;100420.23;1685935;84;21179;-67
2021/10/24 10:45:49;;;;;;;4.78;1.75;;;;;;;7.92;53.41;100418.86;1689945;84;21045;-67
2021/10/24 10:48:41;;;;;;;6.97;2.20;;;;;;;7.90;52.90;100416.95;1686988;84;21001;-65
2021/10/24 10:51:22;;;;;;;7.97;2.80;;;;;;;7.89;53.10;100426.25;1686221;84;21044;-65
2021/10/24 10:54:01;;;;;;;10.18;4.10;;;;;;;7.89;53.82;100416.69;1687742;82;21087;-65
2021/10/24 10:56:46;;;;;;;13.20;5.30;;;;;;;7.99;53.99;100427.33;1686817;84;21845;-65
2021/10/24 10:59:31;;;;;;;7.03;2.83;;;;;;;8.06;53.92;100429.23;1681851;84;22192;-67
2021/10/24 11:02:31;;;;;;;27.85;7.78;;;;;;;8.05;52.97;100427.59;1681058;84;21535;-65
2021/10/24 11:05:07;;;;;;;18.07;6.80;;;;;;;7.96;54.47;100432.80;1670648;84;21037;-66
2021/10/24 11:07:44;;;;;;;14.33;5.08;;;;;;;7.81;56.02;100436.38;1682078;83;21084;-67
2021/10/24 11:10:17;;;;;;;44.98;13.20;;;;;;;7.70;56.73;100440.77;1687138;83;21290;-66
2021/10/24 11:12:47;;;;;;;79.90;23.32;;;;;;;7.57;57.32;100438.04;1682348;83;21416;-66
2021/10/24 11:15:31;;;;;;;31.25;9.85;;;;;;;7.45;57.92;100452.55;1686768;83;21056;-66
2021/10/24 11:18:00;;;;;;;13.00;4.12;;;;;;;7.32;58.37;100454.45;1654572;85;21564;-65
2021/10/24 11:20:43;;;;;;;25.48;6.70;;;;;;;7.22;58.55;100451.98;1668804;85;20969;-66
2021/10/24 11:23:12;;;;;;;;;;;;;;;7.15;59.10;100449.24;1668345;85;21201;-65
2021/10/24 11:25:42;;;;;;;6.37;2.22;;;;;;;7.04;59.27;100457.14;1668371;85;20186;-65
2021/10/24 11:28:16;;;;;;;9.93;2.87;;;;;;;6.94;59.53;100456.03;1668572;84;20987;-65
2021/10/24 11:30:55;;;;;;;6.53;2.58;;;;;;;6.88;59.97;100460.41;1668081;85;20886;-66
2021/10/24 11:33:24;;;;;;;14.68;3.17;;;;;;;6.84;60.21;100466.95;1664814;85;20913;-65
2021/10/24 11:35:55;;;;;;;7.25;2.52;;;;;;;6.79;60.31;100468.30;1668752;86;21168;-65
2021/10/24 11:38:29;;;;;;;14.25;3.47;;;;;;;6.73;60.51;100469.37;1675874;84;20905;-64
2021/10/24 11:41:02;;;;;;;8.95;4.37;;;;;;;6.70;60.69;100471.81;1668493;84;21009;-64
2021/10/24 11:43:34;;;;;;;7.95;3.65;;;;;;;6.68;60.65;100473.45;1652616;84;21040;-65
2021/10/24 11:46:10;;;;;;;16.77;4.70;;;;;;;6.63;60.99;100481.61;1665305;85;21024;-65
2021/10/24 11:48:41;;;;;;;8.38;3.80;;;;;;;6.62;61.15;100482.16;1668715;86;21162;-64